createdAt,value
2018-12-17T00:00:44.054Z,99.90
2018-12-17T00:03:12.133Z,99.90
2018-12-17T00:05:41.852Z,99.90
2018-12-17T00:08:10.400Z,99.90
2018-12-17T00:10:38.433Z,99.90
2018-12-17T00:13:06.635Z,99.90
2018-12-17T00:15:34.707Z,99.90
2018-12-17T00:18:02.840Z,99.90
2018-12-17T00:20:30.953Z,99.90
2018-12-17T00:22:59.109Z,99.90
2018-12-17T00:25:27.181Z,99.90
2018-12-17T00:27:55.262Z,99.90
2018-12-17T00:30:23.302Z,99.90
2018-12-17T00:32:51.481Z,99.90
2018-12-17T00:35:19.667Z,99.90
2018-12-17T00:37:47.720Z,99.90
2018-12-17T00:40:15.949Z,99.90
2018-12-17T00:42:44.177Z,99.90
2018-12-17T00:45:12.287Z,99.90
2018-12-17T00:47:40.421Z,99.90
2018-12-17T00:50:08.597Z,99.90
2018-12-17T00:52:36.769Z,99.90
2018-12-17T00:55:05.275Z,99.90
2018-12-17T00:57:33.356Z,99.90
2018-12-17T01:00:01.485Z,99.90
2018-12-17T01:02:29.532Z,99.90
2018-12-17T01:04:57.709Z,99.90
2018-12-17T01:07:27.742Z,99.90
2018-12-17T01:09:55.889Z,99.90
2018-12-17T01:12:23.940Z,99.90
2018-12-17T01:14:52.056Z,99.90
2018-12-17T01:17:20.226Z,99.90
2018-12-17T01:19:48.266Z,99.90
2018-12-17T01:22:16.439Z,99.90
2018-12-17T01:24:44.552Z,99.90
2018-12-17T01:27:12.723Z,99.90
2018-12-17T01:29:40.795Z,99.90
2018-12-17T01:32:08.841Z,99.90
2018-12-17T01:34:36.906Z,99.90
2018-12-17T01:37:04.989Z,99.90
2018-12-17T01:39:33.235Z,99.90
2018-12-17T01:42:01.293Z,99.90
2018-12-17T01:44:29.365Z,99.90
2018-12-17T01:46:57.443Z,99.90
2018-12-17T01:49:25.517Z,99.90
2018-12-17T01:51:53.629Z,99.90
2018-12-17T01:54:21.681Z,99.90
2018-12-17T01:56:49.750Z,99.90
2018-12-17T01:59:17.833Z,99.90
2018-12-17T02:01:45.956Z,99.90
2018-12-17T02:04:14.091Z,99.90
2018-12-17T02:06:42.267Z,99.90
2018-12-17T02:09:10.441Z,99.90
2018-12-17T02:11:38.507Z,99.90
2018-12-17T02:14:06.615Z,99.90
2018-12-17T02:16:34.654Z,99.90
2018-12-17T02:19:02.763Z,99.90
2018-12-17T02:21:30.793Z,99.90
2018-12-17T02:23:58.979Z,99.90
2018-12-17T02:26:27.040Z,99.90
2018-12-17T02:28:55.188Z,99.90
2018-12-17T02:31:23.258Z,99.90
2018-12-17T02:33:51.303Z,99.90
2018-12-17T02:36:19.383Z,99.90
2018-12-17T02:38:47.470Z,99.90
2018-12-17T02:41:15.532Z,99.90
2018-12-17T02:43:43.673Z,99.90
2018-12-17T02:46:11.843Z,99.90
2018-12-17T02:48:39.916Z,99.90
2018-12-17T02:51:07.981Z,99.90
2018-12-17T02:53:36.053Z,99.90
2018-12-17T02:56:04.168Z,99.90
2018-12-17T02:58:32.297Z,99.90
2018-12-17T03:01:00.363Z,99.90
2018-12-17T03:03:28.451Z,99.90
2018-12-17T03:05:56.563Z,99.90
2018-12-17T03:08:24.757Z,99.90
2018-12-17T03:10:52.896Z,99.90
2018-12-17T03:13:20.947Z,99.90
2018-12-17T03:15:49.043Z,99.90
2018-12-17T03:18:17.092Z,99.90
2018-12-17T03:20:45.186Z,99.90
2018-12-17T03:23:13.355Z,99.90
2018-12-17T03:25:41.428Z,99.90
2018-12-17T03:28:09.499Z,99.90
2018-12-17T03:30:37.636Z,99.90
2018-12-17T03:33:05.802Z,99.90
2018-12-17T03:35:33.876Z,99.90
2018-12-17T03:38:02.050Z,99.90
2018-12-17T03:40:30.837Z,99.90
2018-12-17T03:42:58.927Z,99.90
2018-12-17T03:45:26.984Z,99.90
2018-12-17T03:47:55.046Z,99.90
2018-12-17T03:50:23.200Z,99.90
2018-12-17T03:52:51.286Z,99.90
2018-12-17T03:55:19.349Z,99.90
2018-12-17T03:57:47.499Z,99.90
2018-12-17T04:00:15.586Z,99.90
2018-12-17T04:02:43.687Z,99.90
2018-12-17T04:05:11.728Z,99.90
2018-12-17T04:07:39.792Z,99.90
2018-12-17T04:10:07.986Z,99.90
2018-12-17T04:12:36.065Z,99.90
2018-12-17T04:15:04.985Z,99.90
2018-12-17T04:17:33.047Z,99.90
2018-12-17T04:20:01.123Z,99.90
2018-12-17T04:22:29.177Z,99.90
2018-12-17T04:24:57.275Z,99.90
2018-12-17T04:27:25.362Z,99.90
2018-12-17T04:29:53.425Z,99.90
2018-12-17T04:32:21.559Z,99.90
2018-12-17T04:34:49.650Z,99.90
2018-12-17T04:37:17.721Z,99.90
2018-12-17T04:39:45.896Z,99.90
2018-12-17T04:42:13.987Z,99.90
2018-12-17T04:44:42.063Z,99.90
2018-12-17T04:47:10.152Z,99.90
2018-12-17T04:49:38.244Z,99.90
2018-12-17T04:52:06.333Z,99.90
2018-12-17T04:54:34.451Z,99.90
2018-12-17T04:57:02.604Z,99.90
2018-12-17T04:59:30.774Z,99.90
2018-12-17T05:01:58.844Z,99.90
2018-12-17T05:04:27.041Z,99.90
2018-12-17T05:06:55.083Z,99.90
2018-12-17T05:09:23.163Z,99.90
2018-12-17T05:11:51.255Z,99.90
2018-12-17T05:14:19.312Z,99.90
2018-12-17T05:16:47.509Z,99.90
2018-12-17T05:19:15.662Z,99.90
2018-12-17T05:21:43.733Z,99.90
2018-12-17T05:24:11.814Z,99.90
2018-12-17T05:26:39.877Z,99.90
2018-12-17T05:29:07.952Z,99.90
2018-12-17T05:31:36.022Z,99.90
2018-12-17T05:34:04.101Z,99.90
2018-12-17T05:36:32.190Z,99.90
2018-12-17T05:39:00.289Z,99.90
2018-12-17T05:41:28.355Z,99.90
2018-12-17T05:43:56.577Z,99.90
2018-12-17T05:46:24.638Z,99.90
2018-12-17T05:48:52.764Z,99.90
2018-12-17T05:51:20.878Z,99.90
2018-12-17T05:53:49.391Z,99.90
2018-12-17T05:56:17.481Z,99.90
2018-12-17T05:58:45.564Z,99.90
2018-12-17T06:01:13.670Z,99.90
2018-12-17T06:03:41.768Z,99.90
2018-12-17T06:06:10.162Z,99.90
2018-12-17T06:08:38.349Z,99.90
2018-12-17T06:11:06.418Z,99.90
2018-12-17T06:13:34.518Z,99.90
2018-12-17T06:16:02.701Z,99.90
2018-12-17T06:18:30.775Z,99.90
2018-12-17T06:20:58.990Z,99.90
2018-12-17T06:23:27.082Z,99.90
2018-12-17T06:25:55.156Z,99.90
2018-12-17T06:28:23.234Z,99.90
2018-12-17T06:30:51.308Z,99.90
2018-12-17T06:33:19.389Z,99.90
2018-12-17T06:35:47.461Z,99.90
2018-12-17T06:38:15.633Z,99.90
2018-12-17T06:40:43.697Z,99.90
2018-12-17T06:43:11.821Z,99.90
2018-12-17T06:45:39.917Z,99.90
2018-12-17T06:48:07.990Z,99.90
2018-12-17T06:50:36.162Z,99.90
2018-12-17T06:53:04.252Z,99.90
2018-12-17T06:55:32.394Z,99.90
2018-12-17T06:58:00.950Z,99.90
2018-12-17T07:00:29.051Z,99.90
2018-12-17T07:02:57.162Z,99.90
2018-12-17T07:05:25.240Z,99.90
2018-12-17T07:07:53.304Z,99.90
2018-12-17T07:10:21.354Z,99.90
2018-12-17T07:12:49.548Z,99.90
2018-12-17T07:15:17.722Z,99.90
2018-12-17T07:17:45.747Z,99.90
2018-12-17T07:20:13.823Z,99.90
2018-12-17T07:22:41.974Z,99.90
2018-12-17T07:25:10.158Z,99.90
2018-12-17T07:27:38.243Z,99.90
2018-12-17T07:30:07.286Z,99.90
2018-12-17T07:32:35.345Z,99.90
2018-12-17T07:35:04.382Z,99.90
2018-12-17T07:37:32.461Z,99.90
2018-12-17T07:40:00.726Z,99.90
2018-12-17T07:42:28.753Z,99.90
2018-12-17T07:44:56.892Z,99.90
2018-12-17T07:47:24.956Z,99.90
2018-12-17T07:49:53.034Z,99.90
2018-12-17T07:52:21.554Z,99.90
2018-12-17T07:54:49.662Z,99.90
2018-12-17T07:57:17.725Z,99.90
2018-12-17T07:59:45.767Z,99.90
2018-12-17T08:02:13.851Z,99.90
2018-12-17T08:04:41.906Z,99.90
2018-12-17T08:07:10.020Z,99.90
2018-12-17T08:09:38.244Z,99.90
2018-12-17T08:12:06.278Z,99.90
2018-12-17T08:14:34.408Z,99.90
2018-12-17T08:17:03.552Z,99.90
2018-12-17T08:19:31.741Z,99.90
2018-12-17T08:22:00.226Z,99.90
2018-12-17T08:24:28.686Z,99.90
2018-12-17T08:26:56.893Z,99.90
2018-12-17T08:29:24.939Z,99.90
2018-12-17T08:31:53.060Z,99.90
2018-12-17T08:34:21.203Z,99.90
2018-12-17T08:36:49.232Z,99.90
2018-12-17T08:39:17.323Z,99.90
2018-12-17T08:41:45.405Z,99.90
2018-12-17T08:44:13.631Z,99.90
2018-12-17T08:46:41.704Z,99.90
2018-12-17T08:49:09.844Z,99.90
2018-12-17T08:51:37.915Z,99.90
2018-12-17T08:54:06.013Z,99.90
2018-12-17T08:56:34.077Z,99.90
2018-12-17T08:59:02.150Z,99.90
2018-12-17T09:01:30.312Z,99.90
2018-12-17T09:03:58.365Z,99.90
2018-12-17T09:06:26.532Z,99.90
2018-12-17T09:08:54.592Z,99.90
2018-12-17T09:11:22.804Z,99.90
2018-12-17T09:13:50.940Z,99.90
2018-12-17T09:16:19.043Z,99.90
2018-12-17T09:18:47.116Z,99.90
2018-12-17T09:21:15.186Z,99.90
2018-12-17T09:23:43.339Z,99.90
2018-12-17T09:26:11.401Z,99.90
2018-12-17T09:28:39.488Z,99.90
2018-12-17T09:31:07.575Z,99.90
2018-12-17T09:33:35.653Z,99.90
2018-12-17T09:36:03.727Z,99.90
2018-12-17T09:38:31.791Z,99.90
2018-12-17T09:41:00.150Z,99.90
2018-12-17T09:43:28.228Z,99.90
2018-12-17T09:45:56.393Z,99.90
2018-12-17T09:48:24.465Z,99.90
2018-12-17T09:50:52.580Z,99.90
2018-12-17T09:53:20.830Z,99.90
2018-12-17T09:55:48.866Z,99.90
2018-12-17T09:58:16.951Z,99.90
2018-12-17T10:00:45.044Z,99.90
2018-12-17T10:03:13.117Z,99.90
2018-12-17T10:05:41.193Z,99.90
2018-12-17T10:08:09.221Z,99.90
2018-12-17T10:10:37.627Z,99.90
2018-12-17T10:13:05.776Z,99.90
2018-12-17T10:15:33.862Z,99.90
2018-12-17T10:18:02.361Z,99.90
2018-12-17T10:20:30.419Z,99.90
2018-12-17T10:22:58.487Z,99.90
2018-12-17T10:25:26.559Z,99.90
2018-12-17T10:27:54.621Z,99.90
2018-12-17T10:30:22.684Z,99.90
2018-12-17T10:32:50.769Z,99.90
2018-12-17T10:35:18.871Z,99.90
2018-12-17T10:37:46.931Z,99.90
2018-12-17T10:40:15.009Z,99.90
2018-12-17T10:42:43.093Z,99.90
2018-12-17T10:45:11.159Z,99.90
2018-12-17T10:47:39.227Z,99.90
2018-12-17T10:50:07.542Z,99.90
2018-12-17T10:52:35.590Z,99.90
2018-12-17T10:55:04.891Z,99.90
2018-12-17T10:57:32.928Z,99.90
2018-12-17T11:00:01.023Z,99.90
2018-12-17T11:02:31.069Z,99.90
2018-12-17T11:05:01.434Z,99.90
2018-12-17T11:07:29.497Z,99.90
2018-12-17T11:09:57.560Z,99.90
2018-12-17T11:12:26.099Z,99.90
2018-12-17T11:14:54.196Z,99.90
2018-12-17T11:17:22.249Z,99.90
2018-12-17T11:19:50.312Z,99.90
2018-12-17T11:22:19.127Z,99.90
2018-12-17T11:24:47.211Z,99.90
2018-12-17T11:27:15.268Z,99.90
2018-12-17T11:29:43.443Z,99.90
2018-12-17T11:32:11.787Z,99.90
2018-12-17T11:34:39.998Z,99.90
2018-12-17T11:37:08.096Z,99.90
2018-12-17T11:39:36.156Z,99.90
2018-12-17T11:42:04.238Z,99.90
2018-12-17T11:44:32.336Z,99.90
2018-12-17T11:47:00.504Z,99.90
2018-12-17T11:49:28.638Z,99.90
2018-12-17T11:51:56.721Z,99.90
2018-12-17T11:54:24.873Z,99.90
2018-12-17T11:57:03.540Z,99.90
2018-12-17T11:59:31.685Z,99.90
2018-12-17T12:01:59.960Z,99.90
2018-12-17T12:04:28.092Z,99.90
2018-12-17T12:06:56.190Z,99.90
2018-12-17T12:09:25.134Z,99.90
2018-12-17T12:11:53.216Z,99.90
2018-12-17T12:14:21.266Z,99.90
2018-12-17T12:16:49.474Z,99.90
2018-12-17T12:19:17.710Z,99.90
2018-12-17T12:21:45.774Z,99.90
2018-12-17T12:24:13.908Z,99.90
2018-12-17T12:26:41.924Z,99.90
2018-12-17T12:29:10.054Z,99.80
2018-12-17T12:31:38.120Z,99.60
2018-12-17T12:34:06.172Z,99.40
2018-12-17T12:36:34.292Z,99.20
2018-12-17T12:39:02.640Z,99.00
2018-12-17T12:41:30.732Z,98.80
2018-12-17T12:43:58.804Z,98.80
2018-12-17T12:46:26.874Z,98.70
2018-12-17T12:48:54.924Z,98.80
2018-12-17T12:51:23.025Z,98.70
2018-12-17T12:53:51.089Z,98.70
2018-12-17T12:56:19.153Z,98.70
2018-12-17T12:58:47.219Z,98.70
2018-12-17T13:01:15.312Z,98.70
2018-12-17T13:03:43.402Z,98.60
2018-12-17T13:06:11.437Z,98.60
2018-12-17T13:08:39.503Z,98.60
2018-12-17T13:11:07.614Z,98.50
2018-12-17T13:13:35.670Z,98.40
2018-12-17T13:16:03.745Z,98.70
2018-12-17T13:18:31.928Z,98.40
2018-12-17T13:21:00.017Z,98.50
2018-12-17T13:23:28.087Z,98.60
2018-12-17T13:25:57.249Z,98.50
2018-12-17T13:28:25.310Z,98.60
2018-12-17T13:30:53.387Z,98.40
2018-12-17T13:33:21.481Z,98.50
2018-12-17T13:35:49.541Z,98.40
2018-12-17T13:38:17.606Z,98.40
2018-12-17T13:40:45.668Z,98.50
2018-12-17T13:43:13.720Z,98.60
2018-12-17T13:45:41.785Z,98.60
2018-12-17T13:48:09.946Z,98.40
2018-12-17T13:50:39.110Z,98.40
2018-12-17T13:53:12.971Z,98.20
2018-12-17T13:55:41.024Z,98.20
2018-12-17T13:58:09.200Z,98.20
2018-12-17T14:00:37.268Z,98.30
2018-12-17T14:03:05.380Z,98.40
2018-12-17T14:05:33.493Z,98.30
2018-12-17T14:08:01.522Z,98.40
2018-12-17T14:10:35.176Z,98.40
2018-12-17T14:13:03.241Z,98.50
2018-12-17T14:15:37.019Z,98.60
2018-12-17T14:18:07.102Z,98.70
2018-12-17T14:23:38.505Z,98.90
2018-12-17T14:26:06.569Z,99.00
2018-12-17T14:28:35.417Z,99.00
2018-12-17T14:31:03.536Z,99.10
2018-12-17T14:33:31.598Z,99.20
2018-12-17T14:36:05.264Z,99.30
2018-12-17T14:38:33.412Z,99.30
2018-12-17T14:41:01.440Z,99.40
2018-12-17T14:43:29.509Z,99.50
2018-12-17T14:45:57.583Z,99.50
2018-12-17T14:48:25.644Z,99.60
2018-12-17T14:50:53.731Z,99.70
2018-12-17T14:53:21.812Z,99.90
2018-12-17T14:55:49.970Z,99.90
2018-12-17T14:58:18.262Z,99.90
2018-12-17T15:00:46.306Z,99.90
2018-12-17T15:03:14.389Z,99.90
2018-12-17T15:05:42.550Z,99.90
2018-12-17T15:08:10.592Z,99.90
2018-12-17T15:10:38.795Z,99.80
2018-12-17T15:13:06.940Z,99.80
2018-12-17T15:15:35.008Z,99.80
2018-12-17T15:18:03.382Z,99.80
2018-12-17T15:20:31.427Z,99.80
2018-12-17T15:22:59.510Z,99.80
2018-12-17T15:25:27.620Z,99.80
2018-12-17T15:27:55.720Z,99.80
2018-12-17T15:30:23.881Z,99.80
2018-12-17T15:32:51.963Z,99.80
2018-12-17T15:35:20.050Z,99.80
2018-12-17T15:37:48.121Z,99.80
2018-12-17T15:40:16.190Z,99.90
2018-12-17T15:42:44.236Z,99.90
2018-12-17T15:45:12.308Z,99.90
2018-12-17T15:47:40.403Z,99.90
2018-12-17T15:50:15.970Z,99.90
2018-12-17T15:52:44.035Z,99.90
2018-12-17T15:55:12.131Z,99.90
2018-12-17T15:57:40.311Z,99.90
2018-12-17T16:00:09.539Z,99.90
2018-12-17T16:02:37.688Z,99.90
2018-12-17T16:05:06.075Z,99.90
2018-12-17T16:07:34.151Z,99.90
2018-12-17T16:10:02.379Z,99.90
2018-12-17T16:12:30.553Z,99.90
2018-12-17T16:14:58.587Z,99.90
2018-12-17T16:17:26.639Z,99.90
2018-12-17T16:19:54.689Z,99.90
2018-12-17T16:22:23.146Z,99.90
2018-12-17T16:24:51.224Z,99.90
2018-12-17T16:27:19.630Z,99.90
2018-12-17T16:29:47.931Z,99.90
2018-12-17T16:32:16.011Z,99.90
2018-12-17T16:34:44.069Z,99.90
2018-12-17T16:37:12.181Z,99.90
2018-12-17T16:39:40.206Z,99.90
2018-12-17T16:42:08.282Z,99.90
2018-12-17T16:44:36.334Z,99.90
2018-12-17T16:47:04.445Z,99.90
2018-12-17T16:49:32.517Z,99.90
2018-12-17T16:52:00.597Z,99.90
2018-12-17T16:54:28.732Z,99.90
2018-12-17T16:56:56.797Z,99.90
2018-12-17T16:59:24.894Z,99.90
2018-12-17T17:01:53.079Z,99.90
2018-12-17T17:04:21.225Z,99.90
2018-12-17T17:06:49.252Z,99.90
2018-12-17T17:09:17.333Z,99.90
2018-12-17T17:11:45.403Z,99.90
2018-12-17T17:14:13.476Z,99.90
2018-12-17T17:16:41.558Z,99.90
2018-12-17T17:19:09.634Z,99.90
2018-12-17T17:21:37.734Z,99.90
2018-12-17T17:24:06.240Z,99.90
2018-12-17T17:26:34.311Z,99.90
2018-12-17T17:29:02.375Z,99.90
2018-12-17T17:31:30.538Z,99.90
2018-12-17T17:33:58.649Z,99.90
2018-12-17T17:36:26.821Z,99.90
2018-12-17T17:38:54.859Z,99.90
2018-12-17T17:41:22.999Z,99.90
2018-12-17T17:43:51.110Z,99.90
2018-12-17T17:46:19.201Z,99.90
2018-12-17T17:48:47.342Z,99.90
2018-12-17T17:51:15.670Z,99.90
2018-12-17T17:53:43.766Z,99.90
2018-12-17T17:56:11.908Z,99.90
2018-12-17T17:58:40.316Z,99.90
2018-12-17T18:01:08.472Z,99.90
2018-12-17T18:03:36.548Z,99.90
2018-12-17T18:06:04.595Z,99.90
2018-12-17T18:08:32.692Z,99.90
2018-12-17T18:11:00.866Z,99.90
2018-12-17T18:13:28.953Z,99.90
2018-12-17T18:15:57.011Z,99.90
2018-12-17T18:18:25.083Z,99.90
2018-12-17T18:20:53.160Z,99.90
2018-12-17T18:23:21.238Z,99.90
2018-12-17T18:25:49.311Z,99.90
2018-12-17T18:28:17.379Z,99.90
2018-12-17T18:30:45.464Z,99.90
2018-12-17T18:33:13.538Z,99.90
2018-12-17T18:35:41.796Z,99.90
2018-12-17T18:38:09.921Z,99.90
2018-12-17T18:40:37.986Z,99.90
2018-12-17T18:43:06.206Z,99.90
2018-12-17T18:45:34.378Z,99.90
2018-12-17T18:48:02.449Z,99.90
2018-12-17T18:50:30.522Z,99.90
2018-12-17T18:52:58.581Z,99.90
2018-12-17T18:55:26.680Z,99.90
2018-12-17T18:57:54.763Z,99.90
2018-12-17T19:00:22.930Z,99.90
2018-12-17T19:02:50.998Z,99.90
2018-12-17T19:05:19.069Z,99.90
2018-12-17T19:07:47.240Z,99.90
2018-12-17T19:10:15.371Z,99.90
2018-12-17T19:12:43.475Z,99.90
2018-12-17T19:15:11.541Z,99.90
2018-12-17T19:17:39.648Z,99.90
2018-12-17T19:20:07.938Z,99.90
2018-12-17T19:22:36.323Z,99.90
2018-12-17T19:25:05.524Z,99.90
2018-12-17T19:27:33.698Z,99.90
2018-12-17T19:30:01.823Z,99.90
2018-12-17T19:32:31.173Z,99.90
2018-12-17T19:34:59.238Z,99.90
2018-12-17T19:37:27.288Z,99.90
2018-12-17T19:39:55.400Z,99.90
2018-12-17T19:42:23.464Z,99.90
2018-12-17T19:44:51.530Z,99.90
2018-12-17T19:47:19.699Z,99.90
2018-12-17T19:49:47.760Z,99.90
2018-12-17T19:52:16.844Z,99.90
2018-12-17T19:54:45.044Z,99.90
2018-12-17T19:57:13.088Z,99.90
2018-12-17T19:59:41.263Z,99.90
2018-12-17T20:02:09.334Z,99.90
2018-12-17T20:04:37.425Z,99.90
2018-12-17T20:07:05.501Z,99.90
2018-12-17T20:09:33.667Z,99.90
2018-12-17T20:12:02.046Z,99.90
2018-12-17T20:14:30.099Z,99.90
2018-12-17T20:16:58.151Z,99.90
2018-12-17T20:19:26.244Z,99.90
2018-12-17T20:21:54.284Z,99.90
2018-12-17T20:24:22.616Z,99.90
2018-12-17T20:26:50.706Z,99.90
2018-12-17T20:29:19.595Z,99.90
2018-12-17T20:31:47.667Z,99.90
2018-12-17T20:34:15.760Z,99.90
2018-12-17T20:36:43.874Z,99.90
2018-12-17T20:39:11.979Z,99.90
2018-12-17T20:41:40.060Z,99.90
2018-12-17T20:44:08.114Z,99.90
2018-12-17T20:46:36.208Z,99.90
2018-12-17T20:49:04.290Z,99.90
2018-12-17T20:51:32.364Z,99.90
2018-12-17T20:54:00.509Z,99.90
2018-12-17T20:56:28.565Z,99.90
2018-12-17T20:58:56.752Z,99.90
2018-12-17T21:01:24.820Z,99.90
2018-12-17T21:03:52.935Z,99.90
2018-12-17T21:06:21.007Z,99.90
2018-12-17T21:08:52.463Z,99.90
2018-12-17T21:11:20.584Z,99.90
2018-12-17T21:13:48.658Z,99.90
2018-12-17T21:16:16.755Z,99.90
2018-12-17T21:18:45.015Z,99.90
2018-12-17T21:21:13.199Z,99.90
2018-12-17T21:23:41.402Z,99.90
2018-12-17T21:26:09.481Z,99.90
2018-12-17T21:28:37.583Z,99.90
2018-12-17T21:31:05.665Z,99.90
2018-12-17T21:33:33.766Z,99.90
2018-12-17T21:36:01.859Z,99.90
2018-12-17T21:38:29.975Z,99.90
2018-12-17T21:40:58.124Z,99.90
2018-12-17T21:43:26.166Z,99.90
2018-12-17T21:45:54.310Z,99.90
2018-12-17T21:48:22.360Z,99.90
2018-12-17T21:50:50.560Z,99.90
2018-12-17T21:53:18.692Z,99.90
2018-12-17T21:55:46.768Z,99.90
2018-12-17T21:58:14.837Z,99.90
2018-12-17T22:00:42.884Z,99.90
2018-12-17T22:03:13.326Z,99.90
2018-12-17T22:05:41.149Z,99.90
2018-12-17T22:08:09.232Z,99.90
2018-12-17T22:10:37.363Z,99.90
2018-12-17T22:13:05.442Z,99.90
2018-12-17T22:15:33.523Z,99.90
2018-12-17T22:18:01.579Z,99.90
2018-12-17T22:20:29.729Z,99.90
2018-12-17T22:22:57.837Z,99.90
2018-12-17T22:25:25.907Z,99.90
2018-12-17T22:27:53.929Z,99.90
2018-12-17T22:30:22.017Z,99.90
2018-12-17T22:32:50.299Z,99.90
2018-12-17T22:35:18.437Z,99.90
2018-12-17T22:37:46.513Z,99.90
2018-12-17T22:40:14.677Z,99.90
2018-12-17T22:42:42.754Z,99.90
2018-12-17T22:45:10.848Z,99.90
2018-12-17T22:47:38.916Z,99.90
2018-12-17T22:50:07.198Z,99.90
2018-12-17T22:52:35.256Z,99.90
2018-12-17T22:55:03.642Z,99.90
2018-12-17T22:57:31.784Z,99.90
2018-12-17T22:59:59.808Z,99.90
2018-12-17T23:02:27.967Z,99.90
2018-12-17T23:04:56.755Z,99.90
2018-12-17T23:07:25.850Z,99.90
2018-12-17T23:10:05.817Z,99.90
2018-12-17T23:12:45.698Z,99.90
2018-12-17T23:15:25.811Z,99.90
2018-12-17T23:17:53.689Z,99.90
2018-12-17T23:20:22.015Z,99.90
2018-12-17T23:22:50.068Z,99.90
2018-12-17T23:25:18.193Z,99.90
2018-12-17T23:27:47.986Z,99.90
2018-12-17T23:30:16.300Z,99.90
2018-12-17T23:32:44.513Z,99.90
2018-12-17T23:35:12.711Z,99.90
2018-12-17T23:37:40.937Z,99.90
2018-12-17T23:40:10.282Z,99.90
2018-12-17T23:42:38.647Z,99.90
2018-12-17T23:45:07.220Z,99.90
2018-12-17T23:47:35.301Z,99.90
2018-12-17T23:50:04.093Z,99.90
2018-12-17T23:52:32.135Z,99.90
2018-12-17T23:55:00.291Z,99.90
2018-12-17T23:57:28.355Z,99.90
2018-12-17T23:59:56.429Z,99.90
